createdAt,value
2022-10-19T00:00:20.332Z,7.07
2022-10-19T00:01:04.009Z,7.82
2022-10-19T00:01:36.858Z,9.30
2022-10-19T00:02:09.118Z,7.50
2022-10-19T00:02:43.822Z,7.03
2022-10-19T00:03:19.408Z,8.00
2022-10-19T00:03:55.907Z,7.90
2022-10-19T00:04:31.146Z,7.40
2022-10-19T00:05:03.276Z,8.68
2022-10-19T00:05:35.463Z,7.60
2022-10-19T00:06:17.579Z,8.25
2022-10-19T00:06:49.707Z,8.15
2022-10-19T00:07:21.849Z,7.80
2022-10-19T00:07:56.491Z,7.90
2022-10-19T00:08:28.542Z,7.25
2022-10-19T00:09:02.999Z,8.18
2022-10-19T00:09:37.693Z,7.97
2022-10-19T00:10:10.364Z,8.55
2022-10-19T00:10:42.544Z,8.45
2022-10-19T00:11:17.222Z,7.43
2022-10-19T00:11:50.878Z,7.18
2022-10-19T00:12:22.958Z,6.72
2022-10-19T00:12:57.757Z,8.15
2022-10-19T00:13:29.848Z,8.23
2022-10-19T00:14:02.288Z,7.22
2022-10-19T00:14:36.983Z,7.82
2022-10-19T00:15:09.894Z,7.20
2022-10-19T00:15:42.332Z,7.43
2022-10-19T00:16:19.051Z,7.65
2022-10-19T00:16:52.911Z,7.15
2022-10-19T00:17:25.080Z,8.43
2022-10-19T00:17:59.710Z,7.60
2022-10-19T00:18:31.787Z,8.40
2022-10-19T00:19:06.293Z,8.18
2022-10-19T00:19:40.938Z,8.15
2022-10-19T00:20:13.451Z,7.55
2022-10-19T00:20:45.522Z,8.68
2022-10-19T00:21:22.982Z,7.72
2022-10-19T00:21:56.438Z,8.23
2022-10-19T00:22:28.729Z,7.90
2022-10-19T00:23:03.378Z,8.18
2022-10-19T00:23:35.737Z,8.05
2022-10-19T00:24:08.761Z,8.15
2022-10-19T00:24:43.439Z,8.45
2022-10-19T00:25:15.773Z,7.72
2022-10-19T00:25:55.458Z,7.65
2022-10-19T00:26:30.207Z,8.48
2022-10-19T00:27:02.328Z,7.40
2022-10-19T00:27:34.567Z,7.13
2022-10-19T00:28:09.250Z,8.52
2022-10-19T00:28:42.378Z,7.63
2022-10-19T00:29:15.766Z,8.13
2022-10-19T00:29:50.663Z,7.60
2022-10-19T00:30:22.797Z,9.90
2022-10-19T00:30:54.972Z,8.63
2022-10-19T00:31:30.059Z,7.68
2022-10-19T00:32:02.130Z,7.85
2022-10-19T00:32:34.509Z,8.48
2022-10-19T00:33:06.794Z,8.63
2022-10-19T00:33:41.656Z,7.28
2022-10-19T00:34:13.800Z,7.80
2022-10-19T00:34:45.942Z,8.40
2022-10-19T00:35:20.750Z,8.15
2022-10-19T00:35:53.161Z,8.43
2022-10-19T00:36:33.009Z,8.25
2022-10-19T00:37:05.090Z,7.85
2022-10-19T00:37:37.172Z,7.70
2022-10-19T00:38:11.885Z,7.05
2022-10-19T00:38:43.989Z,8.15
2022-10-19T00:39:17.872Z,8.35
2022-10-19T00:39:52.666Z,8.70
2022-10-19T00:40:24.758Z,8.35
2022-10-19T00:40:57.197Z,7.45
2022-10-19T00:41:34.347Z,7.72
2022-10-19T00:42:06.678Z,7.85
2022-10-19T00:42:38.835Z,7.78
2022-10-19T00:43:14.240Z,7.40
2022-10-19T00:44:00.361Z,9.35
2022-10-19T00:45:14.106Z,8.07
2022-10-19T00:45:49.162Z,8.23
2022-10-19T00:46:21.839Z,7.80
2022-10-19T00:46:54.280Z,7.32
2022-10-19T00:47:27.027Z,8.15
2022-10-19T00:48:01.701Z,8.27
2022-10-19T00:48:33.864Z,7.68
2022-10-19T00:49:10.883Z,9.13
2022-10-19T00:49:48.178Z,7.82
2022-10-19T00:50:20.555Z,8.02
2022-10-19T00:50:54.590Z,8.70
2022-10-19T00:51:32.941Z,9.32
2022-10-19T00:52:07.983Z,8.25
2022-10-19T00:52:40.274Z,7.85
2022-10-19T00:53:15.246Z,7.53
2022-10-19T00:53:47.572Z,9.45
2022-10-19T00:54:20.305Z,8.00
2022-10-19T00:54:56.601Z,8.45
2022-10-19T00:55:28.901Z,8.13
2022-10-19T00:56:06.146Z,8.70
2022-10-19T00:56:43.778Z,8.52
2022-10-19T00:57:16.381Z,9.50
2022-10-19T00:57:48.560Z,9.75
2022-10-19T00:58:23.394Z,8.27
2022-10-19T00:58:55.943Z,7.80
2022-10-19T00:59:31.847Z,7.97
2022-10-19T01:00:09.883Z,8.00
2022-10-19T01:00:42.035Z,8.48
2022-10-19T01:01:17.883Z,8.07
2022-10-19T01:01:53.176Z,7.75
2022-10-19T01:02:25.295Z,8.57
2022-10-19T01:02:58.941Z,6.18
2022-10-19T01:03:33.751Z,8.18
2022-10-19T01:04:06.192Z,8.15
2022-10-19T01:04:46.213Z,7.80
2022-10-19T01:05:21.703Z,8.25
2022-10-19T01:05:53.944Z,9.35
2022-10-19T01:06:28.853Z,7.78
2022-10-19T01:07:04.728Z,7.80
2022-10-19T01:07:37.290Z,9.80
2022-10-19T01:08:11.474Z,8.30
2022-10-19T01:08:46.429Z,8.30
2022-10-19T01:09:18.597Z,8.05
2022-10-19T01:09:51.098Z,8.50
2022-10-19T01:10:34.267Z,8.63
2022-10-19T01:11:17.277Z,8.43
2022-10-19T01:11:59.642Z,7.75
2022-10-19T01:12:51.301Z,8.85
2022-10-19T01:13:38.374Z,8.82
2022-10-19T01:14:28.846Z,8.00
2022-10-19T01:15:11.251Z,8.30
2022-10-19T01:16:53.767Z,8.25
2022-10-19T01:17:39.861Z,8.85
2022-10-19T01:18:19.298Z,8.60
2022-10-19T01:19:01.095Z,8.02
2022-10-19T01:20:00.550Z,8.60
2022-10-19T01:21:07.817Z,8.32
2022-10-19T01:21:48.347Z,8.05
2022-10-19T01:22:38.263Z,9.35
2022-10-19T01:23:30.964Z,9.15
2022-10-19T01:24:38.453Z,7.80
2022-10-19T01:25:22.327Z,9.00
2022-10-19T01:26:04.586Z,7.82
2022-10-19T01:27:01.963Z,8.43
2022-10-19T01:27:41.340Z,9.60
2022-10-19T01:28:28.722Z,7.22
2022-10-19T01:29:14.329Z,8.18
2022-10-19T01:30:02.041Z,8.07
2022-10-19T01:30:48.078Z,9.55
2022-10-19T01:31:28.033Z,8.05
2022-10-19T01:32:05.203Z,8.55
2022-10-19T01:32:56.018Z,7.22
2022-10-19T01:33:37.663Z,7.93
2022-10-19T01:34:19.491Z,9.20
2022-10-19T01:35:00.144Z,7.38
2022-10-19T01:35:38.409Z,9.05
2022-10-19T01:36:35.659Z,8.38
2022-10-19T01:37:17.070Z,8.38
2022-10-19T01:37:54.060Z,8.13
2022-10-19T01:38:37.583Z,7.95
2022-10-19T01:39:13.591Z,8.25
2022-10-19T01:39:52.701Z,9.63
2022-10-19T01:40:33.767Z,8.40
2022-10-19T01:41:15.030Z,8.88
2022-10-19T01:41:58.288Z,8.82
2022-10-19T01:42:36.162Z,8.95
2022-10-19T01:43:14.978Z,8.90
2022-10-19T01:43:56.822Z,8.75
2022-10-19T01:44:37.074Z,7.78
2022-10-19T01:45:17.389Z,8.93
2022-10-19T01:45:55.363Z,9.40
2022-10-19T01:46:32.489Z,8.63
2022-10-19T01:47:11.177Z,8.85
2022-10-19T01:47:50.510Z,8.57
2022-10-19T01:48:26.265Z,8.90
2022-10-19T01:49:06.052Z,7.70
2022-10-19T01:49:42.395Z,8.65
2022-10-19T01:50:19.347Z,9.65
2022-10-19T01:51:00.659Z,8.27
2022-10-19T01:51:36.280Z,9.07
2022-10-19T01:52:11.251Z,9.48
2022-10-19T01:52:46.735Z,9.27
2022-10-19T01:53:20.670Z,7.78
2022-10-19T01:53:57.519Z,8.68
2022-10-19T01:54:37.055Z,10.48
2022-10-19T01:55:11.937Z,9.20
2022-10-19T01:55:47.978Z,8.30
2022-10-19T01:56:26.817Z,9.90
2022-10-19T01:57:02.048Z,9.77
2022-10-19T01:57:38.941Z,8.88
2022-10-19T01:58:19.269Z,8.23
2022-10-19T01:58:54.252Z,9.93
2022-10-19T01:59:30.082Z,8.55
2022-10-19T02:00:07.614Z,8.63
2022-10-19T02:00:52.827Z,8.93
2022-10-19T02:01:30.495Z,9.95
2022-10-19T02:02:05.584Z,9.73
2022-10-19T02:02:42.822Z,9.90
2022-10-19T02:03:18.605Z,8.68
2022-10-19T02:03:52.306Z,10.43
2022-10-19T02:04:28.657Z,8.55
2022-10-19T02:05:03.368Z,8.77
2022-10-19T02:05:37.176Z,9.27
2022-10-19T02:06:14.490Z,9.55
2022-10-19T02:06:47.176Z,9.75
2022-10-19T02:07:22.977Z,9.38
2022-10-19T02:08:01.563Z,8.85
2022-10-19T02:08:40.684Z,8.75
2022-10-19T02:09:18.234Z,8.82
2022-10-19T02:09:53.264Z,10.23
2022-10-19T02:10:26.558Z,9.60
2022-10-19T02:11:00.119Z,8.45
2022-10-19T02:11:35.971Z,9.65
2022-10-19T02:12:10.734Z,9.95
2022-10-19T02:12:44.177Z,9.30
2022-10-19T02:13:19.958Z,9.70
2022-10-19T02:13:59.298Z,9.13
2022-10-19T02:14:37.631Z,8.27
2022-10-19T02:15:12.194Z,9.18
2022-10-19T02:15:49.587Z,11.68
2022-10-19T02:16:30.276Z,8.88
2022-10-19T02:17:06.290Z,8.95
2022-10-19T02:17:44.328Z,8.63
2022-10-19T02:18:23.535Z,9.43
2022-10-19T02:18:57.824Z,8.63
2022-10-19T02:19:32.637Z,8.90
2022-10-19T02:20:06.125Z,8.80
2022-10-19T02:20:38.212Z,8.88
2022-10-19T02:21:10.676Z,8.60
2022-10-19T02:21:45.403Z,9.15
2022-10-19T02:22:17.494Z,8.88
2022-10-19T02:22:50.246Z,8.20
2022-10-19T02:23:28.565Z,9.70
2022-10-19T02:24:00.730Z,8.50
2022-10-19T02:24:32.958Z,9.05
2022-10-19T02:25:09.534Z,9.88
2022-10-19T02:25:41.678Z,10.38
2022-10-19T02:26:13.848Z,8.32
2022-10-19T02:26:49.121Z,9.45
2022-10-19T02:27:21.829Z,9.48
2022-10-19T02:27:54.017Z,9.48
2022-10-19T02:28:29.302Z,9.00
2022-10-19T02:29:01.762Z,8.77
2022-10-19T02:29:34.898Z,10.05
2022-10-19T02:30:11.407Z,9.88
2022-10-19T02:30:43.636Z,9.07
2022-10-19T02:31:18.365Z,8.70
2022-10-19T02:31:53.053Z,9.43
2022-10-19T02:32:26.390Z,7.53
2022-10-19T02:32:58.499Z,9.05
2022-10-19T02:33:33.768Z,9.68
2022-10-19T02:34:06.442Z,8.77
2022-10-19T02:34:39.754Z,8.95
2022-10-19T02:35:17.366Z,8.95
2022-10-19T02:35:49.907Z,9.50
2022-10-19T02:36:22.355Z,9.35
2022-10-19T02:36:57.395Z,8.70
2022-10-19T02:37:29.815Z,8.00
2022-10-19T02:38:04.147Z,9.63
2022-10-19T02:38:39.111Z,8.38
2022-10-19T02:39:11.380Z,10.50
2022-10-19T02:39:43.471Z,9.32
2022-10-19T02:40:18.334Z,9.65
2022-10-19T02:40:57.708Z,9.50
2022-10-19T02:41:34.950Z,8.80
2022-10-19T02:42:14.838Z,9.75
2022-10-19T02:42:52.771Z,9.18
2022-10-19T02:43:27.406Z,9.43
2022-10-19T02:44:07.910Z,9.05
2022-10-19T02:44:44.550Z,8.77
2022-10-19T02:45:21.902Z,11.18
2022-10-19T02:46:03.131Z,10.07
2022-10-19T02:46:43.630Z,10.13
2022-10-19T02:47:19.309Z,9.88
2022-10-19T02:47:57.615Z,9.90
2022-10-19T02:48:32.400Z,10.10
2022-10-19T02:49:06.956Z,10.10
2022-10-19T02:49:42.218Z,9.35
2022-10-19T02:50:14.599Z,10.77
2022-10-19T02:50:47.875Z,9.98
2022-10-19T02:51:36.926Z,9.40
2022-10-19T02:52:10.807Z,9.52
2022-10-19T02:52:42.946Z,8.75
2022-10-19T02:53:18.026Z,9.05
2022-10-19T02:53:50.123Z,9.30
2022-10-19T02:54:22.381Z,8.55
2022-10-19T02:54:57.014Z,8.35
2022-10-19T02:55:30.206Z,8.65
2022-10-19T02:56:02.342Z,9.30
2022-10-19T02:56:38.181Z,8.75
2022-10-19T02:57:16.586Z,8.85
2022-10-19T02:57:48.654Z,9.45
2022-10-19T02:58:23.756Z,8.00
2022-10-19T02:58:56.186Z,9.93
2022-10-19T02:59:29.239Z,10.43
2022-10-19T03:00:04.049Z,10.18
2022-10-19T03:00:36.389Z,9.60
2022-10-19T03:01:08.568Z,9.10
2022-10-19T03:01:43.235Z,9.13
2022-10-19T03:02:18.746Z,10.35
2022-10-19T03:02:50.857Z,9.65
2022-10-19T03:03:22.935Z,9.07
2022-10-19T03:03:55.087Z,10.13
2022-10-19T03:04:29.814Z,10.20
2022-10-19T03:05:02.019Z,10.23
2022-10-19T03:05:34.118Z,10.18
2022-10-19T03:06:08.761Z,10.32
2022-10-19T03:06:40.878Z,9.32
2022-10-19T03:07:15.983Z,9.02
2022-10-19T03:07:50.650Z,9.40
2022-10-19T03:08:22.706Z,10.93
2022-10-19T03:08:54.793Z,10.43
2022-10-19T03:09:29.599Z,10.55
2022-10-19T03:10:01.845Z,10.02
2022-10-19T03:10:34.099Z,9.25
2022-10-19T03:11:08.896Z,9.07
2022-10-19T03:11:40.962Z,15.80
2022-10-19T03:12:13.689Z,13.57
2022-10-19T03:12:48.354Z,10.00
2022-10-19T03:13:20.435Z,9.43
2022-10-19T03:13:52.659Z,11.05
2022-10-19T03:14:27.315Z,9.85
2022-10-19T03:14:59.385Z,10.10
2022-10-19T03:15:31.529Z,11.07
2022-10-19T03:16:11.657Z,9.70
2022-10-19T03:16:46.319Z,10.95
2022-10-19T03:17:18.566Z,8.85
2022-10-19T03:17:55.658Z,10.20
2022-10-19T03:18:27.727Z,9.00
2022-10-19T03:18:59.795Z,10.27
2022-10-19T03:19:34.571Z,11.48
2022-10-19T03:20:07.991Z,12.27
2022-10-19T03:20:40.082Z,12.57
2022-10-19T03:21:16.355Z,10.60
2022-10-19T03:21:48.450Z,11.13
2022-10-19T03:22:20.545Z,10.70
2022-10-19T03:23:28.371Z,11.70
2022-10-19T03:24:01.298Z,11.32
2022-10-19T03:24:34.128Z,13.10
2022-10-19T03:25:09.958Z,10.57
2022-10-19T03:25:42.014Z,12.38
2022-10-19T03:26:15.880Z,10.95
2022-10-19T03:26:50.539Z,12.38
2022-10-19T03:27:22.601Z,11.02
2022-10-19T03:27:54.663Z,11.32
2022-10-19T03:28:26.788Z,10.52
2022-10-19T03:29:01.602Z,11.48
2022-10-19T03:29:33.718Z,10.95
2022-10-19T03:30:06.758Z,9.70
2022-10-19T03:30:41.413Z,10.20
2022-10-19T03:31:13.551Z,10.18
2022-10-19T03:31:48.197Z,9.98
2022-10-19T03:32:22.865Z,10.18
2022-10-19T03:32:54.955Z,9.88
2022-10-19T03:33:27.138Z,10.48
2022-10-19T03:34:02.202Z,10.48
2022-10-19T03:34:34.299Z,10.80
2022-10-19T03:35:07.794Z,9.05
2022-10-19T03:35:42.418Z,10.60
2022-10-19T03:36:23.970Z,10.70
2022-10-19T03:36:56.760Z,9.25
2022-10-19T03:37:28.838Z,11.07
2022-10-19T03:38:03.534Z,10.18
2022-10-19T03:38:35.703Z,10.65
2022-10-19T03:39:10.596Z,10.38
2022-10-19T03:39:45.313Z,10.30
2022-10-19T03:40:17.491Z,9.95
2022-10-19T03:40:49.626Z,10.18
2022-10-19T03:41:23.129Z,10.50
2022-10-19T03:41:57.794Z,11.40
2022-10-19T03:42:29.974Z,12.05
2022-10-19T03:43:02.038Z,9.45
2022-10-19T03:43:37.034Z,10.57
2022-10-19T03:44:10.701Z,10.27
2022-10-19T03:44:45.402Z,10.68
2022-10-19T03:45:17.476Z,10.23
2022-10-19T03:45:49.539Z,10.50
2022-10-19T03:46:25.073Z,10.50
2022-10-19T03:46:59.739Z,11.85
2022-10-19T03:47:32.119Z,10.85
2022-10-19T03:48:07.616Z,11.85
2022-10-19T03:48:39.746Z,10.75
2022-10-19T03:49:12.206Z,11.15
2022-10-19T03:49:48.479Z,11.82
2022-10-19T03:50:21.314Z,12.35
2022-10-19T03:50:59.042Z,11.23
2022-10-19T03:51:34.517Z,11.10
2022-10-19T03:52:06.601Z,10.82
2022-10-19T03:52:38.675Z,11.48
2022-10-19T03:53:13.318Z,10.85
2022-10-19T03:53:46.663Z,10.40
2022-10-19T03:54:19.930Z,9.73
2022-10-19T03:54:57.077Z,11.20
2022-10-19T03:55:30.558Z,12.60
2022-10-19T03:56:04.918Z,12.90
2022-10-19T03:56:39.586Z,11.30
2022-10-19T03:57:12.647Z,12.60
2022-10-19T03:57:44.748Z,11.98
2022-10-19T03:58:16.841Z,10.75
2022-10-19T03:58:52.781Z,11.88
2022-10-19T03:59:24.972Z,12.27
2022-10-19T03:59:57.135Z,11.25
2022-10-19T04:00:31.839Z,11.98
2022-10-19T04:01:08.653Z,13.98
2022-10-19T04:01:42.819Z,11.48
2022-10-19T04:02:20.073Z,10.73
2022-10-19T04:02:52.137Z,11.15
2022-10-19T04:03:24.250Z,11.70
2022-10-19T04:04:00.186Z,11.07
2022-10-19T04:04:32.366Z,11.27
2022-10-19T04:05:05.397Z,11.90
2022-10-19T04:05:40.064Z,11.90
2022-10-19T04:06:18.216Z,11.65
2022-10-19T04:06:54.006Z,10.63
2022-10-19T04:07:28.716Z,13.57
2022-10-19T04:08:00.848Z,12.45
2022-10-19T04:08:32.981Z,11.07
2022-10-19T04:09:08.889Z,12.18
2022-10-19T04:09:41.084Z,12.27
2022-10-19T04:10:13.206Z,12.27
2022-10-19T04:10:47.939Z,13.70
2022-10-19T04:11:22.592Z,12.75
2022-10-19T04:11:57.328Z,13.32
2022-10-19T04:12:29.460Z,12.52
2022-10-19T04:13:01.546Z,11.98
2022-10-19T04:13:37.895Z,11.30
2022-10-19T04:14:15.962Z,11.52
2022-10-19T04:14:58.011Z,12.68
2022-10-19T04:15:30.268Z,14.40
2022-10-19T04:16:02.344Z,12.57
2022-10-19T04:16:37.543Z,13.98
2022-10-19T04:17:10.738Z,10.82
2022-10-19T04:17:48.520Z,13.02
2022-10-19T04:18:23.358Z,12.98
2022-10-19T04:18:55.929Z,12.52
2022-10-19T04:19:28.053Z,14.55
2022-10-19T04:20:02.752Z,13.95
2022-10-19T04:20:34.966Z,15.90
2022-10-19T04:21:07.450Z,14.85
2022-10-19T04:21:43.867Z,14.30
2022-10-19T04:22:16.133Z,15.30
2022-10-19T04:22:48.185Z,14.77
2022-10-19T04:23:22.831Z,14.77
2022-10-19T04:23:59.987Z,14.30
2022-10-19T04:24:34.641Z,13.63
2022-10-19T04:25:09.700Z,14.65
2022-10-19T04:25:41.916Z,13.02
2022-10-19T04:26:14.010Z,16.67
2022-10-19T04:26:51.049Z,14.85
2022-10-19T04:27:23.158Z,16.42
2022-10-19T04:27:55.252Z,13.57
2022-10-19T04:28:30.286Z,14.13
2022-10-19T04:29:02.513Z,13.77
2022-10-19T04:29:37.425Z,15.52
2022-10-19T04:30:10.644Z,15.55
2022-10-19T04:30:42.756Z,17.08
2022-10-19T04:31:17.620Z,14.32
2022-10-19T04:31:50.787Z,17.00
2022-10-19T04:32:22.883Z,14.35
2022-10-19T04:33:00.217Z,15.65
2022-10-19T04:33:32.697Z,15.32
2022-10-19T04:34:05.346Z,16.38
2022-10-19T04:34:40.238Z,16.65
2022-10-19T04:35:12.464Z,17.25
2022-10-19T04:35:44.572Z,18.20
2022-10-19T04:36:19.271Z,18.52
2022-10-19T04:36:51.353Z,16.15
2022-10-19T04:37:23.462Z,14.85
2022-10-19T04:37:58.097Z,16.13
2022-10-19T04:38:30.945Z,18.52
2022-10-19T04:39:03.343Z,17.00
2022-10-19T04:39:40.850Z,17.17
2022-10-19T04:40:15.046Z,17.75
2022-10-19T04:40:47.397Z,18.42
2022-10-19T04:41:23.935Z,18.23
2022-10-19T04:41:56.007Z,18.70
2022-10-19T04:42:28.113Z,16.17
2022-10-19T04:43:02.739Z,17.30
2022-10-19T04:43:35.608Z,17.10
2022-10-19T04:44:07.889Z,18.52
2022-10-19T04:44:42.557Z,17.65
2022-10-19T04:45:14.877Z,17.55
2022-10-19T04:45:46.944Z,18.27
2022-10-19T04:46:22.763Z,17.38
2022-10-19T04:46:54.830Z,16.00
2022-10-19T04:47:26.922Z,15.63
2022-10-19T04:48:04.410Z,14.90
2022-10-19T04:48:38.129Z,15.05
2022-10-19T04:49:10.452Z,16.58
2022-10-19T04:49:45.328Z,13.98
2022-10-19T04:50:17.630Z,14.48
2022-10-19T04:50:49.909Z,17.65
2022-10-19T04:51:29.942Z,16.63
2022-10-19T04:52:02.107Z,18.52
2022-10-19T04:52:35.347Z,17.83
2022-10-19T04:53:10.072Z,19.10
2022-10-19T04:53:43.266Z,16.02
2022-10-19T04:54:15.436Z,17.00
2022-10-19T04:54:50.194Z,18.80
2022-10-19T04:55:22.274Z,20.10
2022-10-19T04:55:54.467Z,20.30
2022-10-19T04:56:31.039Z,16.02
2022-10-19T04:57:03.999Z,15.70
2022-10-19T04:57:36.506Z,16.63
2022-10-19T04:58:11.644Z,20.05
2022-10-19T04:58:44.385Z,16.92
2022-10-19T04:59:16.449Z,15.43
2022-10-19T04:59:51.095Z,17.88
2022-10-19T05:00:23.170Z,20.40
2022-10-19T05:00:55.473Z,18.27
2022-10-19T05:01:32.482Z,19.70
2022-10-19T05:02:04.631Z,17.08
2022-10-19T05:02:39.307Z,16.52
2022-10-19T05:03:14.626Z,17.42
2022-10-19T05:03:47.345Z,16.52
2022-10-19T05:04:22.007Z,16.45
2022-10-19T05:04:54.077Z,16.35
2022-10-19T05:05:26.910Z,16.70
2022-10-19T05:05:59.383Z,18.80
2022-10-19T05:06:34.851Z,18.42
2022-10-19T05:07:06.925Z,16.95
2022-10-19T05:07:39.102Z,16.38
2022-10-19T05:08:14.286Z,19.42
2022-10-19T05:08:48.431Z,17.98
2022-10-19T05:09:20.557Z,20.42
2022-10-19T05:09:55.297Z,19.02
2022-10-19T05:10:27.467Z,16.75
2022-10-19T05:11:03.177Z,17.38
2022-10-19T05:11:37.870Z,17.73
2022-10-19T05:12:10.000Z,21.05
2022-10-19T05:12:42.090Z,19.27
2022-10-19T05:13:16.721Z,17.25
2022-10-19T05:13:49.116Z,18.75
2022-10-19T05:14:24.070Z,21.05
2022-10-19T05:14:56.182Z,20.92
2022-10-19T05:15:28.445Z,20.25
2022-10-19T05:16:05.015Z,20.33
2022-10-19T05:16:37.159Z,19.55
2022-10-19T05:17:12.846Z,17.00
2022-10-19T05:17:44.922Z,19.50
2022-10-19T05:18:19.586Z,18.85
2022-10-19T05:18:56.820Z,19.25
2022-10-19T05:19:28.951Z,21.17
2022-10-19T05:20:03.630Z,21.50
2022-10-19T05:20:35.727Z,19.52
2022-10-19T05:21:09.530Z,19.98
2022-10-19T05:21:44.205Z,20.58
2022-10-19T05:22:16.359Z,20.77
2022-10-19T05:22:48.551Z,18.45
2022-10-19T05:23:23.276Z,23.10
2022-10-19T05:23:56.660Z,19.05
2022-10-19T05:24:28.741Z,18.08
2022-10-19T05:25:03.407Z,20.08
2022-10-19T05:25:35.532Z,19.95
2022-10-19T05:26:09.968Z,20.27
2022-10-19T05:26:44.626Z,19.33
2022-10-19T05:27:16.782Z,19.73
2022-10-19T05:27:51.565Z,18.13
2022-10-19T05:28:26.298Z,21.38
2022-10-19T05:29:01.952Z,24.45
2022-10-19T05:29:36.793Z,22.60
2022-10-19T05:30:10.021Z,22.52
2022-10-19T05:30:46.638Z,22.35
2022-10-19T05:31:23.675Z,21.05
2022-10-19T05:31:55.765Z,25.05
2022-10-19T05:32:28.219Z,24.63
2022-10-19T05:33:02.882Z,23.70
2022-10-19T05:33:38.642Z,25.73
2022-10-19T05:34:13.373Z,27.60
2022-10-19T05:34:45.474Z,25.95
2022-10-19T05:35:20.088Z,26.13
2022-10-19T05:35:57.112Z,22.77
2022-10-19T05:36:34.506Z,21.05
2022-10-19T05:37:06.653Z,22.95
2022-10-19T05:37:41.363Z,18.27
2022-10-19T05:38:13.485Z,21.20
2022-10-19T05:38:47.171Z,23.75
2022-10-19T05:39:21.915Z,22.05
2022-10-19T05:39:54.687Z,23.00
2022-10-19T05:40:26.778Z,19.08
2022-10-19T05:41:01.450Z,17.98
2022-10-19T05:41:33.757Z,20.90
2022-10-19T05:42:08.417Z,19.60
2022-10-19T05:42:40.553Z,18.42
2022-10-19T05:43:12.676Z,21.30
2022-10-19T05:43:47.799Z,17.35
2022-10-19T05:44:21.739Z,18.30
2022-10-19T05:44:53.807Z,19.98
2022-10-19T05:45:28.490Z,16.45
2022-10-19T05:46:03.957Z,19.77
2022-10-19T05:46:39.450Z,18.83
2022-10-19T05:47:11.515Z,19.75
2022-10-19T05:47:43.580Z,19.30
2022-10-19T05:48:18.392Z,17.73
2022-10-19T05:48:54.768Z,19.50
2022-10-19T05:49:29.614Z,16.85
2022-10-19T05:50:01.741Z,17.95
2022-10-19T05:50:33.859Z,18.00
2022-10-19T05:51:10.943Z,17.02
2022-10-19T05:51:43.514Z,20.30
2022-10-19T05:52:17.800Z,19.85
2022-10-19T05:52:52.443Z,21.40
2022-10-19T05:53:24.650Z,17.40
2022-10-19T05:53:57.516Z,23.13
2022-10-19T05:54:32.369Z,20.52
2022-10-19T05:55:05.348Z,18.88
2022-10-19T05:55:37.527Z,18.58
2022-10-19T05:56:16.666Z,20.77
2022-10-19T05:56:49.029Z,18.35
2022-10-19T05:57:23.733Z,16.67
2022-10-19T05:57:55.814Z,18.70
2022-10-19T05:58:27.963Z,17.35
2022-10-19T05:59:05.578Z,18.27
2022-10-19T05:59:37.725Z,18.67
2022-10-19T06:00:11.854Z,18.23
2022-10-19T06:00:46.874Z,16.00
2022-10-19T06:01:20.186Z,17.80
2022-10-19T06:01:54.955Z,17.33
2022-10-19T06:02:27.127Z,21.35
2022-10-19T06:02:59.354Z,17.38
2022-10-19T06:03:34.206Z,17.90
2022-10-19T06:04:10.941Z,18.95
2022-10-19T06:04:45.714Z,19.08
2022-10-19T06:05:17.827Z,18.13
2022-10-19T06:05:50.388Z,15.02
2022-10-19T06:06:26.149Z,17.23
2022-10-19T06:06:58.205Z,17.90
2022-10-19T06:07:30.425Z,15.15
2022-10-19T06:08:02.502Z,16.05
2022-10-19T06:08:38.258Z,17.58
2022-10-19T06:09:10.767Z,19.55
2022-10-19T06:09:43.002Z,15.82
2022-10-19T06:10:17.830Z,16.77
2022-10-19T06:10:50.527Z,15.55
2022-10-19T06:11:27.675Z,15.73
2022-10-19T06:11:59.814Z,17.27
2022-10-19T06:12:34.544Z,13.98
2022-10-19T06:13:06.684Z,16.52
2022-10-19T06:13:39.595Z,17.42
2022-10-19T06:14:17.148Z,15.57
2022-10-19T06:14:51.354Z,16.52
2022-10-19T06:15:23.433Z,18.23
2022-10-19T06:15:58.135Z,15.70
2022-10-19T06:16:31.487Z,17.50
2022-10-19T06:17:06.800Z,15.50
2022-10-19T06:17:38.875Z,17.33
2022-10-19T06:18:13.223Z,14.60
2022-10-19T06:18:48.782Z,17.05
2022-10-19T06:19:23.525Z,18.25
2022-10-19T06:19:58.213Z,18.08
2022-10-19T06:20:30.326Z,14.05
2022-10-19T06:21:04.073Z,17.30
2022-10-19T06:21:41.824Z,14.88
2022-10-19T06:22:17.047Z,14.77
2022-10-19T06:22:51.708Z,13.80
2022-10-19T06:23:23.782Z,13.13
2022-10-19T06:23:57.944Z,16.58
2022-10-19T06:24:32.859Z,18.10
2022-10-19T06:25:05.754Z,15.02
2022-10-19T06:25:37.911Z,12.98
2022-10-19T06:26:15.333Z,14.30
2022-10-19T06:26:47.412Z,15.75
2022-10-19T06:27:22.120Z,16.60
2022-10-19T06:27:54.253Z,14.43
2022-10-19T06:28:26.420Z,15.30
2022-10-19T06:29:03.903Z,16.52
2022-10-19T06:29:36.528Z,14.52
2022-10-19T06:30:09.938Z,15.52
2022-10-19T06:30:44.695Z,15.50
2022-10-19T06:31:17.394Z,13.75
2022-10-19T06:31:49.493Z,14.07
2022-10-19T06:32:24.141Z,13.60
2022-10-19T06:32:56.318Z,15.88
2022-10-19T06:33:30.135Z,15.23
2022-10-19T06:34:05.317Z,13.80
2022-10-19T06:34:40.205Z,16.55
2022-10-19T06:35:12.318Z,14.18
2022-10-19T06:35:46.959Z,16.45
2022-10-19T06:36:21.191Z,15.15
2022-10-19T06:36:53.253Z,15.70
2022-10-19T06:37:27.925Z,13.80
2022-10-19T06:38:00.218Z,15.30
2022-10-19T06:38:32.451Z,15.55
2022-10-19T06:39:07.485Z,14.25
2022-10-19T06:39:39.745Z,13.25
2022-10-19T06:40:12.571Z,15.90
2022-10-19T06:40:49.129Z,17.25
2022-10-19T06:41:21.293Z,12.23
2022-10-19T06:41:56.010Z,16.08
2022-10-19T06:42:30.382Z,14.20
2022-10-19T06:43:02.727Z,12.57
2022-10-19T06:43:37.991Z,12.43
2022-10-19T06:44:10.122Z,16.58
2022-10-19T06:44:44.835Z,10.93
2022-10-19T06:45:17.037Z,12.50
2022-10-19T06:45:49.114Z,8.90
2022-10-19T06:46:26.148Z,12.32
2022-10-19T06:46:58.235Z,15.93
2022-10-19T06:47:33.380Z,13.57
2022-10-19T06:48:09.571Z,14.43
2022-10-19T06:48:41.715Z,12.90
2022-10-19T06:49:17.644Z,13.48
2022-10-19T06:49:52.282Z,14.63
2022-10-19T06:50:24.378Z,12.70
2022-10-19T06:50:59.795Z,13.20
2022-10-19T06:51:32.421Z,11.05
2022-10-19T06:52:07.811Z,11.88
2022-10-19T06:52:40.861Z,14.07
2022-10-19T06:53:15.799Z,13.38
2022-10-19T06:53:48.980Z,12.95
2022-10-19T06:54:25.776Z,11.85
2022-10-19T06:54:57.846Z,9.50
2022-10-19T06:55:32.509Z,10.70
2022-10-19T06:56:06.772Z,10.52
2022-10-19T06:56:41.510Z,12.30
2022-10-19T06:57:13.665Z,9.50
2022-10-19T06:57:45.749Z,9.88
2022-10-19T06:58:20.429Z,9.52
2022-10-19T06:58:53.202Z,10.40
2022-10-19T06:59:28.044Z,11.40
2022-10-19T07:00:00.135Z,10.85
2022-10-19T07:00:32.371Z,12.65
2022-10-19T07:01:09.226Z,11.55
2022-10-19T07:01:41.373Z,7.72
2022-10-19T07:02:13.694Z,13.55
2022-10-19T07:02:48.364Z,10.43
2022-10-19T07:03:20.430Z,10.00
2022-10-19T07:03:53.015Z,10.43
2022-10-19T07:04:27.770Z,10.98
2022-10-19T07:05:06.912Z,9.13
2022-10-19T07:05:41.872Z,9.70
2022-10-19T07:06:14.758Z,11.23
2022-10-19T07:06:49.424Z,14.50
2022-10-19T07:07:21.509Z,13.10
2022-10-19T07:07:53.603Z,15.70
2022-10-19T07:08:29.229Z,11.13
2022-10-19T07:09:02.738Z,8.50
2022-10-19T07:09:37.584Z,7.63
2022-10-19T07:10:10.168Z,10.10
2022-10-19T07:10:42.285Z,8.10
2022-10-19T07:11:19.498Z,7.03
2022-10-19T07:11:52.223Z,8.65
2022-10-19T07:12:24.415Z,7.68
2022-10-19T07:12:59.228Z,9.73
2022-10-19T07:13:31.666Z,7.38
2022-10-19T07:14:06.458Z,7.60
2022-10-19T07:14:39.800Z,8.55
2022-10-19T07:15:14.566Z,6.70
2022-10-19T07:15:47.150Z,6.53
2022-10-19T07:16:21.183Z,6.32
2022-10-19T07:16:56.354Z,8.93
2022-10-19T07:17:28.443Z,6.65
2022-10-19T07:18:00.532Z,6.75
2022-10-19T07:18:35.617Z,6.38
2022-10-19T07:19:07.711Z,7.93
2022-10-19T07:19:42.345Z,7.80
2022-10-19T07:20:17.135Z,6.45
2022-10-19T07:20:55.030Z,6.80
2022-10-19T07:21:29.675Z,5.35
2022-10-19T07:22:02.125Z,5.68
2022-10-19T07:22:34.289Z,7.15
2022-10-19T07:23:09.002Z,6.55
2022-10-19T07:23:43.043Z,5.90
2022-10-19T07:24:17.690Z,7.03
2022-10-19T07:24:49.846Z,6.07
2022-10-19T07:25:25.108Z,6.68
2022-10-19T07:26:01.805Z,5.22
2022-10-19T07:26:36.800Z,4.63
2022-10-19T07:27:08.988Z,6.72
2022-10-19T07:27:41.174Z,6.55
2022-10-19T07:28:16.017Z,5.05
2022-10-19T07:28:49.112Z,5.75
2022-10-19T07:29:23.782Z,6.03
2022-10-19T07:29:55.847Z,5.20
2022-10-19T07:30:28.012Z,5.50
2022-10-19T07:31:08.093Z,3.80
2022-10-19T07:31:40.473Z,5.82
2022-10-19T07:32:15.185Z,7.82
2022-10-19T07:32:47.345Z,5.70
2022-10-19T07:33:19.454Z,6.70
2022-10-19T07:33:56.579Z,6.22
2022-10-19T07:34:29.169Z,7.15
2022-10-19T07:35:01.311Z,8.02
2022-10-19T07:35:39.558Z,5.82
2022-10-19T07:36:13.791Z,7.93
2022-10-19T07:36:49.747Z,6.45
2022-10-19T07:37:21.845Z,7.13